Time;durP1;ratioP1;P1;durP2;ratioP2;P2;SDS_P1;SDS_P2;PMS_P1;PMS_P2;Temp;Humidity;BMP_temperature;BMP_pressure;BME280_temperature;BME280_humidity;BME280_pressure;Samples;Min_cycle;Max_cycle;Signal;HPM_P1;HPM_P2
2022/06/20 00:01:40;;;;;;;12.70;7.20;;;25.50;99.90;;;;;;6277881;27;88699;-67
2022/06/20 00:04:43;;;;;;;10.82;7.05;;;25.50;99.90;;;;;;6275005;27;89348;-66
2022/06/20 00:07:45;;;;;;;10.02;6.80;;;25.50;99.90;;;;;;6268618;27;89078;-66
2022/06/20 00:10:47;;;;;;;8.65;6.20;;;25.50;99.90;;;;;;6266667;27;88246;-66
2022/06/20 00:13:53;;;;;;;9.82;7.05;;;25.50;99.90;;;;;;6276261;27;89461;-66
2022/06/20 00:16:55;;;;;;;10.93;6.68;;;25.50;99.90;;;;;;6270739;27;89231;-66
2022/06/20 00:19:59;;;;;;;9.63;6.65;;;25.50;99.90;;;;;;6264010;27;89264;-66
2022/06/20 00:23:01;;;;;;;14.27;6.88;;;25.50;99.90;;;;;;6276640;27;87049;-66
2022/06/20 00:26:03;;;;;;;11.27;6.75;;;25.50;99.90;;;;;;6261451;27;88312;-66
2022/06/20 00:29:06;;;;;;;12.43;6.80;;;25.50;99.90;;;;;;6276702;27;87995;-66
2022/06/20 00:32:11;;;;;;;10.50;6.38;;;25.50;99.90;;;;;;6269402;27;90017;-66
2022/06/20 00:35:15;;;;;;;12.95;6.40;;;25.50;99.90;;;;;;6257454;27;89047;-66
2022/06/20 00:38:20;;;;;;;15.75;7.57;;;25.50;99.90;;;;;;6256455;27;89239;-66
2022/06/20 00:41:25;;;;;;;13.27;7.40;;;25.50;99.90;;;;;;6256060;27;89230;-66
2022/06/20 00:44:32;;;;;;;13.75;6.72;;;25.50;99.90;;;;;;6261256;27;89022;-66
2022/06/20 00:47:36;;;;;;;11.43;6.65;;;25.50;99.90;;;;;;6280286;27;89495;-66
2022/06/20 00:50:40;;;;;;;10.18;7.13;;;25.50;99.90;;;;;;6264704;27;89382;-66
2022/06/20 00:53:47;;;;;;;11.35;6.78;;;25.50;99.90;;;;;;6276004;27;88298;-66
2022/06/20 00:56:54;;;;;;;15.90;7.13;;;25.50;99.90;;;;;;6261367;27;89157;-66
2022/06/20 01:00:03;;;;;;;11.30;6.68;;;25.50;99.90;;;;;;6259670;27;89041;-66
2022/06/20 01:03:11;;;;;;;11.02;6.55;;;25.50;99.90;;;;;;6260391;27;90495;-66
2022/06/20 01:06:22;;;;;;;10.63;6.75;;;25.50;99.90;;;;;;6273368;27;88961;-66
2022/06/20 01:09:30;;;;;;;11.15;6.57;;;25.40;99.90;;;;;;6280361;27;89231;-66
2022/06/20 01:12:40;;;;;;;10.75;7.05;;;25.50;99.90;;;;;;6270345;27;88984;-66
2022/06/20 01:15:44;;;;;;;15.57;6.95;;;25.50;99.90;;;;;;6281448;27;89039;-66
2022/06/20 01:18:48;;;;;;;12.32;7.05;;;25.50;99.90;;;;;;6268125;27;89148;-66
2022/06/20 01:21:52;;;;;;;10.65;6.20;;;25.50;99.90;;;;;;6274212;27;87825;-66
2022/06/20 01:25:02;;;;;;;8.88;6.70;;;25.40;99.90;;;;;;6279917;27;88765;-67
2022/06/20 01:28:08;;;;;;;10.38;6.75;;;25.40;99.90;;;;;;6273054;27;89090;-66
2022/06/20 01:31:11;;;;;;;13.93;6.75;;;25.40;99.90;;;;;;6263307;27;89084;-66
2022/06/20 01:34:15;;;;;;;13.88;7.40;;;25.40;99.90;;;;;;6261853;27;89850;-66
2022/06/20 01:37:23;;;;;;;12.93;7.05;;;25.40;99.90;;;;;;6270003;27;88906;-66
2022/06/20 01:40:25;;;;;;;10.52;6.40;;;25.40;99.90;;;;;;6266862;27;89587;-66
2022/06/20 01:43:29;;;;;;;10.90;6.60;;;25.40;99.90;;;;;;6263070;27;89100;-66
2022/06/20 01:46:34;;;;;;;11.63;6.53;;;25.40;99.90;;;;;;6274831;27;88984;-65
2022/06/20 01:49:38;;;;;;;10.18;6.53;;;25.40;99.90;;;;;;6276478;27;87772;-66
2022/06/20 01:52:43;;;;;;;11.10;7.32;;;25.40;99.90;;;;;;6270908;27;89077;-66
2022/06/20 01:55:49;;;;;;;10.90;7.45;;;25.40;99.90;;;;;;6265235;27;88403;-66
2022/06/20 01:58:57;;;;;;;10.00;6.85;;;25.40;99.90;;;;;;6256424;27;89067;-66
2022/06/20 02:01:59;;;;;;;10.70;6.78;;;25.40;99.90;;;;;;6270882;27;88884;-66
2022/06/20 02:05:04;;;;;;;9.68;7.10;;;25.40;99.90;;;;;;6267944;27;90038;-66
2022/06/20 02:08:08;;;;;;;11.70;7.50;;;25.30;99.90;;;;;;6259358;27;87961;-66
2022/06/20 02:11:14;;;;;;;13.30;7.70;;;25.30;99.90;;;;;;6261307;27;89444;-66
2022/06/20 02:14:22;;;;;;;12.35;6.70;;;25.30;99.90;;;;;;6268169;27;89187;-66
2022/06/20 02:17:28;;;;;;;11.23;7.10;;;25.30;99.90;;;;;;6268763;27;89099;-66
2022/06/20 02:20:34;;;;;;;11.40;7.15;;;25.30;99.90;;;;;;6279950;27;87915;-66
2022/06/20 02:23:40;;;;;;;12.27;6.90;;;25.30;99.90;;;;;;6255333;27;89064;-66
2022/06/20 02:26:44;;;;;;;12.98;7.50;;;25.30;99.90;;;;;;6255852;27;88822;-66
2022/06/20 02:29:47;;;;;;;9.48;6.90;;;25.30;99.90;;;;;;6274862;27;89056;-65
2022/06/20 02:32:55;;;;;;;11.60;7.20;;;25.30;99.90;;;;;;6266045;27;88098;-66
2022/06/20 02:35:59;;;;;;;9.07;6.57;;;25.30;99.90;;;;;;6266207;27;90082;-66
2022/06/20 02:39:01;;;;;;;13.05;7.47;;;25.40;99.90;;;;;;6278118;27;89031;-66
2022/06/20 02:42:07;;;;;;;11.35;7.18;;;25.30;99.90;;;;;;6261857;27;89404;-66
2022/06/20 02:45:12;;;;;;;9.45;6.80;;;25.30;99.90;;;;;;6278052;27;87997;-66
2022/06/20 02:48:16;;;;;;;11.85;7.45;;;25.30;99.90;;;;;;6286820;27;89026;-66
2022/06/20 02:51:21;;;;;;;12.50;7.25;;;25.30;99.90;;;;;;6276748;27;89101;-66
2022/06/20 02:54:27;;;;;;;8.98;7.20;;;25.30;99.90;;;;;;6276893;27;89214;-66
2022/06/20 02:57:34;;;;;;;11.63;7.00;;;25.30;99.90;;;;;;6258798;27;88296;-66
2022/06/20 03:00:42;;;;;;;10.35;6.68;;;25.20;99.90;;;;;;6271874;27;88931;-66
2022/06/20 03:03:47;;;;;;;12.40;7.07;;;25.30;99.90;;;;;;6289089;27;89050;-66
2022/06/20 03:06:53;;;;;;;11.05;7.75;;;25.20;99.90;;;;;;6255745;27;90027;-66
2022/06/20 03:09:59;;;;;;;12.23;7.50;;;25.20;99.90;;;;;;6255922;27;89368;-66
2022/06/20 03:13:01;;;;;;;10.70;7.63;;;25.20;99.90;;;;;;6255425;27;89125;-66
2022/06/20 03:16:06;;;;;;;11.70;7.38;;;25.20;99.90;;;;;;6263818;27;89038;-65
2022/06/20 03:19:14;;;;;;;12.07;7.97;;;25.30;99.90;;;;;;6270815;27;89193;-66
2022/06/20 03:22:21;;;;;;;11.63;7.35;;;25.30;99.90;;;;;;6271596;27;89284;-66
2022/06/20 03:25:23;;;;;;;12.02;7.40;;;25.20;99.90;;;;;;6271332;27;88431;-66
2022/06/20 03:28:26;;;;;;;14.20;7.70;;;25.20;99.90;;;;;;6283981;27;89248;-66
2022/06/20 03:31:29;;;;;;;13.32;7.95;;;25.20;99.90;;;;;;6267664;27;89547;-66
2022/06/20 03:34:31;;;;;;;12.82;7.90;;;25.20;99.90;;;;;;6290299;27;88905;-66
2022/06/20 03:37:33;;;;;;;12.38;7.75;;;25.20;99.90;;;;;;6286118;27;90020;-65
2022/06/20 03:40:39;;;;;;;12.50;7.80;;;25.20;99.90;;;;;;6272012;27;89111;-65
2022/06/20 03:43:46;;;;;;;12.27;7.80;;;25.20;99.90;;;;;;6272216;27;89157;-65
2022/06/20 03:46:54;;;;;;;10.23;6.93;;;25.20;99.90;;;;;;6280096;27;89370;-66
2022/06/20 03:50:01;;;;;;;12.80;7.82;;;25.20;99.90;;;;;;6271071;27;89079;-66
2022/06/20 03:53:09;;;;;;;9.40;6.68;;;25.20;99.90;;;;;;6259166;27;89382;-65
2022/06/20 03:56:16;;;;;;;10.93;7.25;;;25.10;99.90;;;;;;6269816;27;87804;-66
2022/06/20 03:59:23;;;;;;;14.25;8.02;;;25.20;99.90;;;;;;6268760;27;88320;-66
2022/06/20 04:02:32;;;;;;;13.88;7.60;;;25.20;99.90;;;;;;6272604;27;89047;-66
2022/06/20 04:05:42;;;;;;;13.65;8.20;;;25.20;99.90;;;;;;6263346;27;88992;-66
2022/06/20 04:12:13;;;;;;;13.90;8.48;;;25.20;99.90;;;;;;6280637;27;87237;-66
2022/06/20 04:15:20;;;;;;;15.05;9.73;;;25.20;99.90;;;;;;6266187;27;89077;-66
2022/06/20 04:18:29;;;;;;;15.07;11.18;;;25.20;99.90;;;;;;6283357;27;87787;-66
2022/06/20 04:21:38;;;;;;;17.02;11.18;;;25.20;99.90;;;;;;6257901;27;89052;-66
2022/06/20 04:24:49;;;;;;;15.65;11.45;;;25.20;99.90;;;;;;6257712;27;89008;-66
2022/06/20 04:27:56;;;;;;;14.70;11.23;;;25.20;99.90;;;;;;6270315;27;89188;-66
2022/06/20 04:31:06;;;;;;;15.68;11.07;;;25.20;99.90;;;;;;6267238;27;88426;-66
2022/06/20 04:34:15;;;;;;;14.43;10.60;;;25.20;99.90;;;;;;6260066;27;89053;-68
2022/06/20 04:37:23;;;;;;;15.18;10.55;;;25.20;99.90;;;;;;6266994;27;89085;-66
2022/06/20 04:40:29;;;;;;;13.65;9.93;;;25.10;99.90;;;;;;6272263;27;89154;-66
2022/06/20 04:43:37;;;;;;;13.02;9.52;;;25.20;99.90;;;;;;6266744;27;87955;-66
2022/06/20 04:46:44;;;;;;;16.52;9.25;;;25.20;99.90;;;;;;6278416;27;89776;-67
2022/06/20 04:49:48;;;;;;;14.85;9.52;;;25.20;99.90;;;;;;6258212;27;89052;-66
2022/06/20 04:52:51;;;;;;;13.32;9.30;;;25.20;99.90;;;;;;6280687;27;89077;-66
2022/06/20 04:55:57;;;;;;;10.35;7.85;;;25.20;99.90;;;;;;6268595;27;89415;-66
2022/06/20 04:59:01;;;;;;;12.13;8.25;;;25.20;99.90;;;;;;6272755;27;89096;-66
2022/06/20 05:02:07;;;;;;;14.65;8.63;;;25.20;99.90;;;;;;6268699;27;88439;-66
2022/06/20 05:05:17;;;;;;;12.82;8.52;;;25.20;99.90;;;;;;6268486;27;89080;-66
2022/06/20 05:08:25;;;;;;;11.23;8.95;;;25.20;99.90;;;;;;6277599;27;88003;-66
2022/06/20 05:11:32;;;;;;;10.23;8.10;;;25.20;99.90;;;;;;6266441;27;89933;-66
2022/06/20 05:14:44;;;;;;;12.18;8.13;;;25.20;99.90;;;;;;6267951;27;89152;-66
2022/06/20 05:17:48;;;;;;;11.82;8.48;;;25.30;99.90;;;;;;6274142;27;89142;-66
2022/06/20 05:20:58;;;;;;;13.45;8.73;;;25.20;99.90;;;;;;6275000;27;89092;-66
2022/06/20 05:24:04;;;;;;;13.45;8.77;;;25.20;99.90;;;;;;6268609;27;89097;-66
2022/06/20 05:27:20;;;;;;;10.65;8.30;;;25.20;99.90;;;;;;6265254;27;89199;-66
2022/06/20 05:30:26;;;;;;;10.75;7.97;;;25.20;99.90;;;;;;6268124;27;88981;-66
2022/06/20 05:33:33;;;;;;;10.40;7.68;;;25.30;99.90;;;;;;6293455;27;87209;-66
2022/06/20 05:36:49;;;;;;;13.13;8.23;;;25.20;99.90;;;;;;6266861;27;89158;-66
2022/06/20 05:39:55;;;;;;;10.02;7.95;;;25.20;99.90;;;;;;6257356;27;89020;-66
2022/06/20 05:42:57;;;;;;;10.43;7.65;;;25.30;99.90;;;;;;6256372;27;90147;-66
2022/06/20 05:46:01;;;;;;;13.00;8.60;;;25.30;99.90;;;;;;6256315;27;89074;-66
2022/06/20 05:49:07;;;;;;;11.93;8.13;;;25.30;99.90;;;;;;6279831;27;89428;-66
2022/06/20 05:52:17;;;;;;;12.50;8.27;;;25.30;99.90;;;;;;6282420;27;89417;-66
2022/06/20 05:55:28;;;;;;;10.70;8.30;;;25.30;99.90;;;;;;6280339;27;89144;-66
2022/06/20 05:58:34;;;;;;;10.65;7.80;;;25.30;99.90;;;;;;6279740;27;88302;-66
2022/06/20 06:01:41;;;;;;;13.77;8.50;;;25.30;99.90;;;;;;6280491;27;89197;-66
2022/06/20 06:04:51;;;;;;;11.82;8.05;;;25.30;99.90;;;;;;6274017;27;88273;-66
2022/06/20 06:08:01;;;;;;;13.02;8.20;;;25.30;99.90;;;;;;6281959;27;89512;-66
2022/06/20 06:11:10;;;;;;;11.02;8.18;;;25.30;99.90;;;;;;6266069;27;88975;-66
2022/06/20 06:14:18;;;;;;;10.70;8.15;;;25.30;99.90;;;;;;6274544;27;89997;-66
2022/06/20 06:17:25;;;;;;;10.25;8.00;;;25.30;99.90;;;;;;6269703;27;89124;-66
2022/06/20 06:20:31;;;;;;;9.90;8.00;;;25.30;99.90;;;;;;6276853;27;89188;-66
2022/06/20 06:23:34;;;;;;;12.70;8.10;;;25.40;99.90;;;;;;6286094;27;89092;-66
2022/06/20 06:26:37;;;;;;;8.85;7.97;;;25.40;99.90;;;;;;6279911;27;89346;-67
2022/06/20 06:29:43;;;;;;;11.45;7.75;;;25.40;99.90;;;;;;6277229;27;89223;-66
2022/06/20 06:32:50;;;;;;;11.15;7.60;;;25.30;99.90;;;;;;6268115;27;89018;-66
2022/06/20 06:35:59;;;;;;;13.93;8.13;;;25.40;99.90;;;;;;6268474;27;88428;-66
2022/06/20 06:39:10;;;;;;;10.07;7.85;;;25.40;99.90;;;;;;6262606;27;89251;-66
2022/06/20 06:42:16;;;;;;;12.23;8.50;;;25.40;99.90;;;;;;6272744;27;89391;-66
2022/06/20 06:45:23;;;;;;;12.23;8.48;;;25.40;99.90;;;;;;6264830;27;90017;-66
2022/06/20 06:48:32;;;;;;;9.50;8.15;;;25.30;99.90;;;;;;6255818;27;87917;-66
2022/06/20 06:51:39;;;;;;;10.63;8.02;;;25.40;99.90;;;;;;6272152;27;88976;-66
2022/06/20 06:54:56;;;;;;;9.20;7.80;;;25.40;99.90;;;;;;6279095;27;89104;-66
2022/06/20 06:58:04;;;;;;;9.05;8.02;;;25.30;99.90;;;;;;6270151;27;89091;-66
2022/06/20 07:01:11;;;;;;;8.77;7.85;;;25.40;99.90;;;;;;6269991;27;89442;-66
2022/06/20 07:04:17;;;;;;;9.98;7.63;;;25.40;99.90;;;;;;6264113;27;89129;-66
2022/06/20 07:07:25;;;;;;;10.63;7.80;;;25.40;99.90;;;;;;6277965;27;88333;-67
2022/06/20 07:10:34;;;;;;;8.52;7.70;;;25.40;99.90;;;;;;6283579;27;89180;-66
2022/06/20 07:13:41;;;;;;;14.50;8.40;;;25.40;99.90;;;;;;6274072;27;89449;-66
2022/06/20 07:16:52;;;;;;;9.57;7.93;;;25.40;99.90;;;;;;6275474;27;90099;-66
2022/06/20 07:19:54;;;;;;;8.90;7.28;;;25.40;99.90;;;;;;6289287;27;87944;-66
2022/06/20 07:23:00;;;;;;;10.10;7.55;;;25.40;99.90;;;;;;6283942;27;89074;-67
2022/06/20 07:49:38;;;;;;;8.75;7.40;;;25.30;99.90;;;;;;6184324;28;82733;-66
2022/06/20 07:52:47;;;;;;;8.07;7.30;;;25.30;99.90;;;;;;6164860;28;82265;-66
2022/06/20 07:55:56;;;;;;;8.23;7.38;;;25.30;99.90;;;;;;6176316;28;82112;-65
2022/06/20 07:59:08;;;;;;;9.10;7.78;;;25.30;99.90;;;;;;6169818;28;80999;-65
2022/06/20 08:02:20;;;;;;;8.35;7.55;;;25.30;99.90;;;;;;6160709;28;83819;-66
2022/06/20 08:05:27;;;;;;;9.50;7.80;;;25.40;99.90;;;;;;6155728;28;82592;-66
2022/06/20 08:08:38;;;;;;;8.32;7.47;;;25.40;99.90;;;;;;6155413;28;83635;-66
2022/06/20 08:11:47;;;;;;;8.00;7.20;;;25.40;99.90;;;;;;6159635;28;83101;-66
2022/06/20 08:14:55;;;;;;;7.65;6.95;;;25.30;99.90;;;;;;6170373;28;82347;-65
2022/06/20 08:17:59;;;;;;;8.52;7.10;;;25.30;99.90;;;;;;6166850;28;82258;-66
2022/06/20 08:21:09;;;;;;;10.38;7.18;;;25.40;99.90;;;;;;6167445;28;82334;-66
2022/06/20 08:24:18;;;;;;;7.70;6.93;;;25.30;99.90;;;;;;6178973;28;82169;-66
2022/06/20 08:27:29;;;;;;;9.55;7.15;;;25.30;99.90;;;;;;6161349;28;82299;-66
2022/06/20 08:30:37;;;;;;;8.13;7.32;;;25.30;99.90;;;;;;6173726;28;82296;-65
2022/06/20 08:33:44;;;;;;;7.55;6.75;;;25.30;99.90;;;;;;6177446;28;82271;-66
2022/06/20 08:36:51;;;;;;;8.57;7.15;;;25.40;99.90;;;;;;6174702;28;81021;-66
2022/06/20 08:40:00;;;;;;;10.38;7.43;;;25.30;99.90;;;;;;6155666;28;82393;-65
2022/06/20 08:43:32;;;;;;;8.45;6.90;;;25.30;99.90;;;;;;6170087;28;82424;-65
2022/06/20 08:47:07;;;;;;;7.80;7.00;;;25.30;99.90;;;;;;6160501;28;82629;-65
2022/06/20 08:50:43;;;;;;;7.78;6.93;;;25.40;99.90;;;;;;6153290;28;83464;-65
2022/06/20 08:54:19;;;;;;;7.43;6.68;;;25.40;99.90;;;;;;6153169;28;81539;-65
2022/06/20 08:57:29;;;;;;;8.32;6.82;;;25.30;99.90;;;;;;6151678;28;81230;-65
2022/06/20 09:00:40;;;;;;;8.68;7.13;;;25.30;99.90;;;;;;6151033;28;82713;-65
2022/06/20 09:04:04;;;;;;;7.75;6.97;;;25.40;99.90;;;;;;6142307;28;82011;-65
2022/06/20 09:07:29;;;;;;;7.32;6.63;;;25.40;99.90;;;;;;6150472;28;82138;-65
2022/06/20 09:10:48;;;;;;;8.13;6.97;;;25.40;99.90;;;;;;6150723;28;81970;-66
2022/06/20 09:14:11;;;;;;;7.90;7.10;;;25.40;99.90;;;;;;6139526;28;82262;-65
2022/06/20 09:17:23;;;;;;;7.82;7.03;;;25.40;99.90;;;;;;6140546;28;81373;-65
2022/06/20 09:20:34;;;;;;;7.60;6.90;;;25.40;99.90;;;;;;6161154;28;82414;-65
2022/06/20 09:23:49;;;;;;;7.75;6.85;;;25.40;99.90;;;;;;6152173;28;82831;-65
2022/06/20 09:27:08;;;;;;;8.20;6.88;;;25.40;99.90;;;;;;6161439;28;82281;-65
2022/06/20 09:30:14;;;;;;;7.90;7.07;;;25.30;99.90;;;;;;6147797;28;81298;-65
2022/06/20 09:33:46;;;;;;;8.05;7.25;;;25.30;99.90;;;;;;6152226;28;81073;-65
2022/06/20 09:37:22;;;;;;;7.35;6.63;;;25.40;99.90;;;;;;6153465;28;82354;-65
2022/06/20 09:40:33;;;;;;;7.55;6.82;;;25.40;99.90;;;;;;6159745;28;82475;-65
2022/06/20 09:43:46;;;;;;;8.68;6.93;;;25.40;99.90;;;;;;6144788;28;81464;-65
2022/06/20 09:46:59;;;;;;;8.32;7.00;;;25.40;99.90;;;;;;6148574;28;81230;-65
2022/06/20 09:50:22;;;;;;;8.13;7.05;;;25.40;99.90;;;;;;6145775;28;82585;-65
2022/06/20 09:53:37;;;;;;;7.80;6.95;;;25.40;99.90;;;;;;6150200;28;81220;-65
2022/06/20 09:56:48;;;;;;;8.73;6.93;;;25.40;99.90;;;;;;6145827;28;82417;-65
2022/06/20 09:59:58;;;;;;;8.73;6.68;;;25.40;99.90;;;;;;6151895;28;82287;-65
2022/06/20 10:03:06;;;;;;;7.15;6.40;;;25.40;99.90;;;;;;6156308;28;81325;-65
2022/06/20 10:06:28;;;;;;;8.70;6.80;;;25.40;99.90;;;;;;6143812;28;82307;-65
2022/06/20 10:09:39;;;;;;;7.57;6.80;;;25.40;99.90;;;;;;6137844;28;82274;-65
2022/06/20 10:12:47;;;;;;;8.50;6.55;;;25.40;99.90;;;;;;6149839;28;81495;-65
2022/06/20 10:16:01;;;;;;;8.98;6.45;;;25.40;99.90;;;;;;6154166;28;82312;-65
2022/06/20 10:19:11;;;;;;;8.60;6.68;;;25.40;99.90;;;;;;6156974;28;82471;-65
2022/06/20 10:22:21;;;;;;;7.53;6.72;;;25.40;99.90;;;;;;6150673;28;82317;-65
2022/06/20 10:25:40;;;;;;;7.18;6.47;;;25.40;99.90;;;;;;6141523;28;81480;-65
2022/06/20 10:28:47;;;;;;;8.68;6.85;;;25.40;99.90;;;;;;6144760;28;84137;-64
2022/06/20 10:32:00;;;;;;;7.45;6.75;;;25.40;99.90;;;;;;6152853;28;82382;-65
2022/06/20 10:35:15;;;;;;;8.70;6.80;;;25.40;99.90;;;;;;6157388;28;81473;-65
2022/06/20 10:38:38;;;;;;;7.07;6.53;;;25.40;99.90;;;;;;6149074;28;82211;-65
2022/06/20 10:41:52;;;;;;;8.10;6.30;;;25.40;99.90;;;;;;6148374;28;81183;-65
2022/06/20 10:45:10;;;;;;;7.13;6.40;;;25.40;99.90;;;;;;6145519;28;80268;-65
2022/06/20 10:48:41;;;;;;;6.82;6.10;;;25.40;99.90;;;;;;6153249;28;82446;-65
2022/06/20 10:51:54;;;;;;;7.30;6.60;;;25.40;99.90;;;;;;6148882;28;82691;-65
2022/06/20 10:55:07;;;;;;;6.97;6.18;;;25.40;99.90;;;;;;6152827;28;81237;-65
2022/06/20 10:58:33;;;;;;;7.15;6.35;;;25.40;99.90;;;;;;6139632;28;82925;-65
2022/06/20 11:01:43;;;;;;;7.10;6.40;;;25.50;99.90;;;;;;6141157;28;81245;-65
2022/06/20 11:04:58;;;;;;;7.25;6.47;;;25.40;99.90;;;;;;6136721;28;82256;-65
2022/06/20 11:08:23;;;;;;;7.35;6.15;;;25.40;99.90;;;;;;6137406;28;82383;-65
2022/06/20 11:11:36;;;;;;;8.13;6.10;;;25.50;99.90;;;;;;6150443;28;81481;-65
2022/06/20 11:14:56;;;;;;;7.75;6.30;;;25.40;99.90;;;;;;6149002;28;82395;-65
2022/06/20 11:18:11;;;;;;;7.18;6.47;;;25.40;99.90;;;;;;6158590;28;81279;-64
2022/06/20 11:21:20;;;;;;;6.70;6.00;;;25.40;99.90;;;;;;6150687;28;81257;-65
2022/06/20 11:24:37;;;;;;;8.50;6.65;;;25.40;99.90;;;;;;6148144;28;82678;-65
2022/06/20 11:27:52;;;;;;;7.10;6.28;;;25.50;99.90;;;;;;6145583;28;84648;-64
2022/06/20 11:31:01;;;;;;;8.63;6.70;;;25.50;99.90;;;;;;6145505;28;82293;-65
2022/06/20 11:34:36;;;;;;;9.07;6.90;;;25.50;99.90;;;;;;6148282;28;82455;-65
2022/06/20 11:38:07;;;;;;;7.28;6.47;;;25.50;99.90;;;;;;6151673;28;83814;-65
2022/06/20 11:41:12;;;;;;;8.52;6.78;;;25.40;99.90;;;;;;6148022;28;82887;-65
2022/06/20 11:44:28;;;;;;;7.72;6.60;;;25.40;99.90;;;;;;6148251;28;82426;-65
2022/06/20 11:48:02;;;;;;;6.85;6.25;;;25.40;99.90;;;;;;6136494;28;82292;-65
2022/06/20 11:51:10;;;;;;;7.50;6.60;;;25.50;99.90;;;;;;6147627;28;82469;-65
2022/06/20 11:54:36;;;;;;;8.30;6.88;;;25.50;99.90;;;;;;6148748;28;83583;-65
2022/06/20 11:57:43;;;;;;;8.68;6.80;;;25.50;99.90;;;;;;6148185;28;81228;-65
2022/06/20 12:00:52;;;;;;;8.45;6.88;;;25.50;99.90;;;;;;6150397;28;82393;-65
2022/06/20 12:04:02;;;;;;;7.22;6.45;;;25.50;99.90;;;;;;6145693;28;82587;-65
2022/06/20 12:07:10;;;;;;;7.93;6.78;;;25.50;99.90;;;;;;6149302;28;82701;-65
2022/06/20 12:10:22;;;;;;;7.00;6.40;;;25.50;99.90;;;;;;6148495;28;82484;-65
2022/06/20 12:13:36;;;;;;;7.60;6.45;;;25.50;99.90;;;;;;6146961;28;82261;-65
2022/06/20 12:16:52;;;;;;;7.65;6.40;;;25.50;99.90;;;;;;6145514;28;82147;-64
2022/06/20 12:23:45;;;;;;;8.20;6.40;;;25.50;99.90;;;;;;6150408;28;81153;-65
2022/06/20 12:26:49;;;;;;;7.97;6.47;;;25.50;99.90;;;;;;6159462;28;82406;-65
2022/06/20 12:29:51;;;;;;;9.77;7.15;;;25.50;99.90;;;;;;6152811;28;82394;-65
2022/06/20 12:32:57;;;;;;;9.63;7.10;;;25.50;99.90;;;;;;6162749;28;81206;-65
2022/06/20 12:36:04;;;;;;;8.15;6.97;;;25.50;99.90;;;;;;6153095;28;81289;-65
2022/06/20 12:39:14;;;;;;;9.45;6.50;;;25.50;99.90;;;;;;6160056;28;82334;-65
2022/06/20 12:42:24;;;;;;;7.72;6.93;;;25.50;99.90;;;;;;6150326;28;81232;-65
2022/06/20 12:45:49;;;;;;;8.02;6.47;;;25.50;99.90;;;;;;6160323;28;80359;-65
2022/06/20 12:49:14;;;;;;;6.85;6.20;;;25.50;99.90;;;;;;6160259;28;82523;-65
2022/06/20 12:52:20;;;;;;;8.45;6.97;;;25.50;99.90;;;;;;6150240;28;82330;-65
2022/06/20 12:55:34;;;;;;;9.13;6.55;;;25.50;99.90;;;;;;6140347;28;83279;-65
2022/06/20 12:59:03;;;;;;;7.43;6.72;;;25.50;99.90;;;;;;6148996;28;82264;-65
2022/06/20 13:02:12;;;;;;;7.95;6.60;;;25.50;99.90;;;;;;6151708;28;83790;-65
2022/06/20 13:05:37;;;;;;;6.78;6.10;;;25.50;99.90;;;;;;6151351;28;82328;-65
2022/06/20 13:08:54;;;;;;;7.85;7.05;;;25.50;99.90;;;;;;6149595;28;82324;-65
2022/06/20 13:12:03;;;;;;;7.15;6.30;;;25.50;99.90;;;;;;6138830;28;82336;-65
2022/06/20 13:15:30;;;;;;;8.32;6.85;;;25.50;99.90;;;;;;6150782;28;84089;-65
2022/06/20 13:19:08;;;;;;;7.68;6.63;;;25.50;99.90;;;;;;6138997;28;84249;-65
2022/06/20 13:22:20;;;;;;;7.60;6.80;;;25.50;99.90;;;;;;6154335;28;84409;-65
2022/06/20 13:25:33;;;;;;;7.38;6.68;;;25.50;99.90;;;;;;6142663;28;84177;-65
2022/06/20 13:28:47;;;;;;;8.43;6.90;;;25.50;99.90;;;;;;6139201;28;84925;-65
2022/06/20 13:31:56;;;;;;;8.13;6.82;;;25.50;99.90;;;;;;6144032;28;84032;-65
2022/06/20 13:35:06;;;;;;;10.00;7.30;;;25.60;99.90;;;;;;6140854;28;83687;-65
2022/06/20 13:38:15;;;;;;;7.43;6.72;;;25.50;99.90;;;;;;6144202;28;84055;-65
2022/06/20 13:41:23;;;;;;;7.07;6.40;;;25.60;99.90;;;;;;6140806;28;84052;-65
2022/06/20 13:44:38;;;;;;;6.90;6.20;;;25.50;99.90;;;;;;6158532;28;85244;-65
2022/06/20 13:48:01;;;;;;;7.63;6.93;;;25.50;99.90;;;;;;6151393;28;82611;-65
2022/06/20 13:51:11;;;;;;;7.32;6.60;;;25.50;99.90;;;;;;6142510;28;83251;-65
2022/06/20 13:54:21;;;;;;;8.30;6.60;;;25.50;99.90;;;;;;6160305;28;83372;-64
2022/06/20 13:57:31;;;;;;;6.72;6.03;;;25.60;99.90;;;;;;6150043;28;84034;-65
2022/06/20 14:00:36;;;;;;;8.15;6.80;;;25.50;99.90;;;;;;6137614;28;85197;-65
2022/06/20 14:03:48;;;;;;;7.45;6.72;;;25.50;99.90;;;;;;6161149;28;84365;-65
2022/06/20 14:06:54;;;;;;;8.70;7.22;;;25.50;99.90;;;;;;6149714;28;84362;-66
2022/06/20 14:09:58;;;;;;;7.63;6.70;;;25.50;99.90;;;;;;6146438;28;84145;-65
2022/06/20 14:13:04;;;;;;;7.53;6.82;;;25.60;99.90;;;;;;6138733;28;86218;-65
2022/06/20 14:16:23;;;;;;;8.07;6.78;;;25.50;99.90;;;;;;6146841;28;84064;-65
2022/06/20 14:19:30;;;;;;;7.82;6.88;;;25.50;99.90;;;;;;6147888;28;84468;-65
2022/06/20 14:22:36;;;;;;;6.85;6.25;;;25.60;99.90;;;;;;6148895;28;83791;-65
2022/06/20 14:25:41;;;;;;;7.82;6.70;;;25.60;99.90;;;;;;6142692;28;84531;-65
2022/06/20 14:28:47;;;;;;;7.90;6.90;;;25.50;99.90;;;;;;6145891;28;84164;-65
2022/06/20 14:31:55;;;;;;;8.02;6.68;;;25.60;99.90;;;;;;6148523;28;85347;-66
2022/06/20 14:35:23;;;;;;;7.82;6.95;;;25.50;99.90;;;;;;6145805;28;85909;-65
2022/06/20 14:38:31;;;;;;;7.50;6.78;;;25.60;99.90;;;;;;6141404;28;83113;-65
2022/06/20 14:41:41;;;;;;;7.40;6.68;;;25.50;99.90;;;;;;6135887;28;82947;-65
2022/06/20 14:44:49;;;;;;;7.18;6.47;;;25.60;99.90;;;;;;6148686;28;84334;-66
2022/06/20 14:48:05;;;;;;;7.47;6.80;;;25.50;99.90;;;;;;6148120;28;84246;-66
2022/06/20 14:51:15;;;;;;;7.40;6.60;;;25.60;99.90;;;;;;6152545;28;83995;-66
2022/06/20 14:54:23;;;;;;;7.75;6.55;;;25.50;99.90;;;;;;6137508;28;83301;-65
2022/06/20 14:57:32;;;;;;;7.20;6.50;;;25.60;99.90;;;;;;6146575;28;84738;-65
2022/06/20 15:00:38;;;;;;;7.40;6.70;;;25.50;99.90;;;;;;6160654;28;84358;-65
2022/06/20 15:03:59;;;;;;;7.07;6.38;;;25.60;99.90;;;;;;6147736;28;84986;-66
2022/06/20 15:07:18;;;;;;;7.35;6.65;;;25.60;99.90;;;;;;6136697;28;82921;-66
2022/06/20 15:10:27;;;;;;;7.13;6.50;;;25.60;99.90;;;;;;6135999;28;82912;-65
2022/06/20 15:13:37;;;;;;;7.40;6.45;;;25.50;99.90;;;;;;6147788;28;84040;-65
2022/06/20 15:16:44;;;;;;;7.18;6.50;;;25.60;99.90;;;;;;6136041;28;82782;-65
2022/06/20 15:19:51;;;;;;;7.20;6.57;;;25.60;99.90;;;;;;6147187;28;84651;-65
2022/06/20 15:22:58;;;;;;;7.15;6.22;;;25.60;99.90;;;;;;6149082;28;84009;-65
2022/06/20 15:26:04;;;;;;;7.20;6.50;;;25.60;99.90;;;;;;6136590;28;83290;-65
2022/06/20 15:29:11;;;;;;;7.15;6.47;;;25.60;99.90;;;;;;6148658;28;82967;-65
2022/06/20 15:32:35;;;;;;;8.43;6.20;;;25.50;99.90;;;;;;6147973;28;84080;-65
2022/06/20 15:35:56;;;;;;;7.65;6.38;;;25.60;99.90;;;;;;6154168;28;84984;-65
2022/06/20 15:39:08;;;;;;;6.90;6.20;;;25.60;99.90;;;;;;6137750;28;82936;-65
2022/06/20 15:42:17;;;;;;;6.63;6.00;;;25.60;99.90;;;;;;6136214;28;85055;-65
2022/06/20 15:45:24;;;;;;;7.03;6.35;;;25.60;99.90;;;;;;6136396;28;83039;-65
2022/06/20 15:48:33;;;;;;;7.35;6.65;;;25.60;99.90;;;;;;6135358;28;83877;-65
2022/06/20 15:51:40;;;;;;;6.70;6.07;;;25.60;99.90;;;;;;6139495;28;84336;-65
2022/06/20 15:55:06;;;;;;;6.78;5.88;;;25.60;99.90;;;;;;6139902;28;84197;-65
2022/06/20 15:58:20;;;;;;;7.00;6.30;;;25.60;99.90;;;;;;6139963;28;82543;-65
2022/06/20 16:01:33;;;;;;;7.10;6.40;;;25.60;99.90;;;;;;6138990;28;84072;-65
2022/06/20 16:04:42;;;;;;;6.22;5.72;;;25.60;99.90;;;;;;6144944;28;84105;-65
2022/06/20 16:07:55;;;;;;;6.43;5.90;;;25.60;99.90;;;;;;6145324;28;84743;-65
2022/06/20 16:11:04;;;;;;;6.43;5.75;;;25.60;99.90;;;;;;6152911;28;84095;-65
2022/06/20 16:14:08;;;;;;;6.57;5.95;;;25.60;99.90;;;;;;6139929;28;84162;-65
2022/06/20 16:17:10;;;;;;;6.35;5.75;;;25.60;99.90;;;;;;6142252;28;84096;-65
2022/06/20 16:20:13;;;;;;;6.45;5.85;;;25.60;99.90;;;;;;6160942;28;83994;-65
2022/06/20 16:23:22;;;;;;;7.07;6.38;;;25.60;99.90;;;;;;6139675;28;82938;-65
2022/06/20 16:26:29;;;;;;;7.88;5.88;;;25.60;99.90;;;;;;6152165;28;84024;-66
2022/06/20 16:29:35;;;;;;;6.63;6.03;;;25.60;99.90;;;;;;6140426;28;83691;-65
2022/06/20 16:32:39;;;;;;;6.60;5.53;;;25.60;99.90;;;;;;6147860;28;84365;-66
2022/06/20 16:35:42;;;;;;;6.45;5.80;;;25.60;99.90;;;;;;6160487;28;84386;-65
2022/06/20 16:38:44;;;;;;;6.50;5.90;;;25.60;99.90;;;;;;6141821;28;83882;-65
2022/06/20 16:41:55;;;;;;;6.75;6.13;;;25.60;99.90;;;;;;6157400;28;84444;-65
2022/06/20 16:45:02;;;;;;;6.40;5.80;;;25.60;99.90;;;;;;6147919;28;84102;-65
2022/06/20 16:48:18;;;;;;;6.93;6.22;;;25.60;99.90;;;;;;6157036;28;84057;-65
2022/06/20 16:51:34;;;;;;;5.13;4.38;;;25.60;99.90;;;;;;6152930;28;84039;-66
2022/06/20 16:54:48;;;;;;;6.13;4.47;;;25.60;99.90;;;;;;6141606;28;83886;-66